sensor_id;sensor_type;location;lat;lon;timestamp;temperature;humidity
15535;DHT22;7869;49.264;8.596;2022-09-09T00:04:20;15.60;99.90
15535;DHT22;7869;49.264;8.596;2022-09-09T00:06:55;15.60;99.90
15535;DHT22;7869;49.264;8.596;2022-09-09T00:09:26;15.60;99.90
15535;DHT22;7869;49.264;8.596;2022-09-09T00:12:05;15.60;99.90
15535;DHT22;7869;49.264;8.596;2022-09-09T00:17:36;15.60;99.90
15535;DHT22;7869;49.264;8.596;2022-09-09T00:20:20;15.60;99.90
15535;DHT22;7869;49.264;8.596;2022-09-09T00:22:59;15.60;99.90
15535;DHT22;7869;49.264;8.596;2022-09-09T00:25:40;15.60;99.90
15535;DHT22;7869;49.264;8.596;2022-09-09T00:28:22;15.60;99.90
15535;DHT22;7869;49.264;8.596;2022-09-09T00:30:48;15.60;99.90
15535;DHT22;7869;49.264;8.596;2022-09-09T00:33:19;15.70;99.90
15535;DHT22;7869;49.264;8.596;2022-09-09T00:35:49;15.70;99.90
15535;DHT22;7869;49.264;8.596;2022-09-09T00:38:35;15.70;99.90
15535;DHT22;7869;49.264;8.596;2022-09-09T00:43:35;15.70;99.90
15535;DHT22;7869;49.264;8.596;2022-09-09T00:57:28;15.70;99.90
15535;DHT22;7869;49.264;8.596;2022-09-09T01:00:17;15.70;99.90
15535;DHT22;7869;49.264;8.596;2022-09-09T01:03:00;15.70;99.90
15535;DHT22;7869;49.264;8.596;2022-09-09T01:05:39;15.70;99.90
15535;DHT22;7869;49.264;8.596;2022-09-09T01:08:21;15.80;99.90
15535;DHT22;7869;49.264;8.596;2022-09-09T01:10:51;15.70;99.90
15535;DHT22;7869;49.264;8.596;2022-09-09T01:13:24;15.80;99.90
15535;DHT22;7869;49.264;8.596;2022-09-09T01:15:51;15.80;99.90
15535;DHT22;7869;49.264;8.596;2022-09-09T01:18:21;15.90;99.90
15535;DHT22;7869;49.264;8.596;2022-09-09T01:26:52;16.00;99.90
15535;DHT22;7869;49.264;8.596;2022-09-09T01:29:21;16.10;99.90
15535;DHT22;7869;49.264;8.596;2022-09-09T01:31:57;16.10;99.90
15535;DHT22;7869;49.264;8.596;2022-09-09T01:34:25;16.10;99.90
15535;DHT22;7869;49.264;8.596;2022-09-09T01:37:07;16.10;99.90
15535;DHT22;7869;49.264;8.596;2022-09-09T01:39:35;16.10;99.90
15535;DHT22;7869;49.264;8.596;2022-09-09T01:42:02;16.00;99.90
15535;DHT22;7869;49.264;8.596;2022-09-09T01:44:30;15.90;99.90
15535;DHT22;7869;49.264;8.596;2022-09-09T01:46:56;15.90;99.90
15535;DHT22;7869;49.264;8.596;2022-09-09T01:49:22;15.90;99.90
15535;DHT22;7869;49.264;8.596;2022-09-09T01:51:53;15.80;99.90
15535;DHT22;7869;49.264;8.596;2022-09-09T01:54:22;15.80;99.90
15535;DHT22;7869;49.264;8.596;2022-09-09T02:02:29;15.80;99.90
15535;DHT22;7869;49.264;8.596;2022-09-09T02:07:41;15.70;99.90
15535;DHT22;7869;49.264;8.596;2022-09-09T02:10:30;15.70;99.90
15535;DHT22;7869;49.264;8.596;2022-09-09T02:13:15;15.70;99.90
15535;DHT22;7869;49.264;8.596;2022-09-09T02:15:46;15.70;99.90
15535;DHT22;7869;49.264;8.596;2022-09-09T02:18:15;15.70;99.90
15535;DHT22;7869;49.264;8.596;2022-09-09T02:20:45;15.70;99.90
15535;DHT22;7869;49.264;8.596;2022-09-09T02:23:11;15.80;99.90
15535;DHT22;7869;49.264;8.596;2022-09-09T02:25:40;15.80;99.90
15535;DHT22;7869;49.264;8.596;2022-09-09T02:28:08;15.80;99.90
15535;DHT22;7869;49.264;8.596;2022-09-09T02:30:37;15.90;99.90
15535;DHT22;7869;49.264;8.596;2022-09-09T02:33:04;16.00;99.90
15535;DHT22;7869;49.264;8.596;2022-09-09T02:35:32;16.00;99.90
15535;DHT22;7869;49.264;8.596;2022-09-09T02:38:05;16.00;99.90
15535;DHT22;7869;49.264;8.596;2022-09-09T02:40:31;16.00;99.90
15535;DHT22;7869;49.264;8.596;2022-09-09T02:42:57;16.00;99.90
15535;DHT22;7869;49.264;8.596;2022-09-09T02:45:29;16.00;99.90
15535;DHT22;7869;49.264;8.596;2022-09-09T02:48:21;15.90;99.90
15535;DHT22;7869;49.264;8.596;2022-09-09T02:53:24;15.80;99.90
15535;DHT22;7869;49.264;8.596;2022-09-09T02:58:24;15.80;99.90
15535;DHT22;7869;49.264;8.596;2022-09-09T03:00:51;15.80;99.90
15535;DHT22;7869;49.264;8.596;2022-09-09T03:03:18;15.80;99.90
15535;DHT22;7869;49.264;8.596;2022-09-09T03:05:45;15.70;99.90
15535;DHT22;7869;49.264;8.596;2022-09-09T03:08:11;15.80;99.90
15535;DHT22;7869;49.264;8.596;2022-09-09T03:10:38;15.70;99.90
15535;DHT22;7869;49.264;8.596;2022-09-09T03:13:04;15.70;99.90
15535;DHT22;7869;49.264;8.596;2022-09-09T03:15:31;15.60;99.90
15535;DHT22;7869;49.264;8.596;2022-09-09T03:17:57;15.60;99.90
15535;DHT22;7869;49.264;8.596;2022-09-09T03:20:24;15.60;99.90
15535;DHT22;7869;49.264;8.596;2022-09-09T03:22:54;15.50;99.90
15535;DHT22;7869;49.264;8.596;2022-09-09T03:25:20;15.40;99.90
15535;DHT22;7869;49.264;8.596;2022-09-09T03:27:49;15.40;99.90
15535;DHT22;7869;49.264;8.596;2022-09-09T03:30:15;15.40;99.90
15535;DHT22;7869;49.264;8.596;2022-09-09T03:32:41;15.40;99.90
15535;DHT22;7869;49.264;8.596;2022-09-09T03:35:06;15.40;99.90
15535;DHT22;7869;49.264;8.596;2022-09-09T03:37:32;15.40;99.90
15535;DHT22;7869;49.264;8.596;2022-09-09T03:39:58;15.40;99.90
15535;DHT22;7869;49.264;8.596;2022-09-09T03:42:25;15.40;99.90
15535;DHT22;7869;49.264;8.596;2022-09-09T03:44:50;15.50;99.90
15535;DHT22;7869;49.264;8.596;2022-09-09T03:47:20;15.50;99.90
15535;DHT22;7869;49.264;8.596;2022-09-09T03:49:47;15.50;99.90
15535;DHT22;7869;49.264;8.596;2022-09-09T03:52:13;15.50;99.90
15535;DHT22;7869;49.264;8.596;2022-09-09T03:54:39;15.50;99.90
15535;DHT22;7869;49.264;8.596;2022-09-09T03:57:06;15.60;99.90
15535;DHT22;7869;49.264;8.596;2022-09-09T03:59:32;15.60;99.90
15535;DHT22;7869;49.264;8.596;2022-09-09T04:01:58;15.60;99.90
15535;DHT22;7869;49.264;8.596;2022-09-09T04:04:24;15.60;99.90
15535;DHT22;7869;49.264;8.596;2022-09-09T04:06:52;15.60;99.90
15535;DHT22;7869;49.264;8.596;2022-09-09T04:09:17;15.70;99.90
15535;DHT22;7869;49.264;8.596;2022-09-09T04:11:43;15.70;99.90
15535;DHT22;7869;49.264;8.596;2022-09-09T04:14:08;15.70;99.90
15535;DHT22;7869;49.264;8.596;2022-09-09T04:16:34;15.70;99.90
15535;DHT22;7869;49.264;8.596;2022-09-09T04:19:02;15.60;99.90
15535;DHT22;7869;49.264;8.596;2022-09-09T04:21:30;15.70;99.90
15535;DHT22;7869;49.264;8.596;2022-09-09T04:23:56;15.70;99.90
15535;DHT22;7869;49.264;8.596;2022-09-09T04:26:21;15.70;99.90
15535;DHT22;7869;49.264;8.596;2022-09-09T04:28:47;15.70;99.90
15535;DHT22;7869;49.264;8.596;2022-09-09T04:31:21;15.70;99.90
15535;DHT22;7869;49.264;8.596;2022-09-09T04:33:49;15.80;99.90
15535;DHT22;7869;49.264;8.596;2022-09-09T04:36:15;15.80;99.90
15535;DHT22;7869;49.264;8.596;2022-09-09T04:38:40;15.90;99.90
15535;DHT22;7869;49.264;8.596;2022-09-09T04:41:06;15.90;99.90
15535;DHT22;7869;49.264;8.596;2022-09-09T04:43:33;15.90;99.90
15535;DHT22;7869;49.264;8.596;2022-09-09T04:45:58;15.90;99.90
15535;DHT22;7869;49.264;8.596;2022-09-09T04:48:25;15.80;99.90
15535;DHT22;7869;49.264;8.596;2022-09-09T04:51:02;15.80;99.90
15535;DHT22;7869;49.264;8.596;2022-09-09T04:53:29;15.80;99.90
15535;DHT22;7869;49.264;8.596;2022-09-09T04:56:02;15.90;99.90
15535;DHT22;7869;49.264;8.596;2022-09-09T04:58:28;15.80;99.90
15535;DHT22;7869;49.264;8.596;2022-09-09T05:00:54;15.90;99.90
15535;DHT22;7869;49.264;8.596;2022-09-09T05:03:19;15.90;99.90
15535;DHT22;7869;49.264;8.596;2022-09-09T05:05:45;15.90;99.90
15535;DHT22;7869;49.264;8.596;2022-09-09T05:08:10;16.10;99.90
15535;DHT22;7869;49.264;8.596;2022-09-09T05:10:38;16.10;99.90
15535;DHT22;7869;49.264;8.596;2022-09-09T05:13:04;16.30;99.90
15535;DHT22;7869;49.264;8.596;2022-09-09T05:15:29;16.40;99.90
15535;DHT22;7869;49.264;8.596;2022-09-09T05:17:59;16.40;99.90
15535;DHT22;7869;49.264;8.596;2022-09-09T05:20:26;16.30;99.90
15535;DHT22;7869;49.264;8.596;2022-09-09T05:22:55;16.30;99.90
15535;DHT22;7869;49.264;8.596;2022-09-09T05:25:22;16.30;99.90
15535;DHT22;7869;49.264;8.596;2022-09-09T05:27:48;16.40;99.90
15535;DHT22;7869;49.264;8.596;2022-09-09T05:30:15;16.40;99.90
15535;DHT22;7869;49.264;8.596;2022-09-09T05:32:40;16.40;99.90
15535;DHT22;7869;49.264;8.596;2022-09-09T05:35:06;16.50;99.90
15535;DHT22;7869;49.264;8.596;2022-09-09T05:37:32;16.60;99.90
15535;DHT22;7869;49.264;8.596;2022-09-09T05:39:57;16.60;99.90
15535;DHT22;7869;49.264;8.596;2022-09-09T05:42:23;16.60;99.90
15535;DHT22;7869;49.264;8.596;2022-09-09T05:44:49;16.60;99.90
15535;DHT22;7869;49.264;8.596;2022-09-09T05:47:16;16.70;99.90
15535;DHT22;7869;49.264;8.596;2022-09-09T05:49:42;16.60;99.90
15535;DHT22;7869;49.264;8.596;2022-09-09T05:52:08;16.60;99.90
15535;DHT22;7869;49.264;8.596;2022-09-09T05:54:35;16.70;99.90
15535;DHT22;7869;49.264;8.596;2022-09-09T05:57:00;16.80;99.90
15535;DHT22;7869;49.264;8.596;2022-09-09T05:59:26;16.80;99.90
15535;DHT22;7869;49.264;8.596;2022-09-09T06:01:51;16.80;99.90
15535;DHT22;7869;49.264;8.596;2022-09-09T06:04:17;16.70;99.90
15535;DHT22;7869;49.264;8.596;2022-09-09T06:06:43;16.60;99.90
15535;DHT22;7869;49.264;8.596;2022-09-09T06:09:09;16.60;99.90
15535;DHT22;7869;49.264;8.596;2022-09-09T06:11:37;16.60;99.90
15535;DHT22;7869;49.264;8.596;2022-09-09T06:14:04;16.60;99.90
15535;DHT22;7869;49.264;8.596;2022-09-09T06:16:30;16.60;99.90
15535;DHT22;7869;49.264;8.596;2022-09-09T06:18:58;16.80;99.90
15535;DHT22;7869;49.264;8.596;2022-09-09T06:21:35;16.90;99.90
15535;DHT22;7869;49.264;8.596;2022-09-09T06:24:04;17.10;99.90
15535;DHT22;7869;49.264;8.596;2022-09-09T06:26:32;17.20;99.90
15535;DHT22;7869;49.264;8.596;2022-09-09T06:28:59;17.40;99.90
15535;DHT22;7869;49.264;8.596;2022-09-09T06:31:27;17.40;99.90
15535;DHT22;7869;49.264;8.596;2022-09-09T06:33:56;17.50;99.90
15535;DHT22;7869;49.264;8.596;2022-09-09T06:36:24;17.60;99.90
15535;DHT22;7869;49.264;8.596;2022-09-09T06:38:50;17.80;99.90
15535;DHT22;7869;49.264;8.596;2022-09-09T06:41:17;17.90;99.90
15535;DHT22;7869;49.264;8.596;2022-09-09T06:43:44;18.00;99.90
15535;DHT22;7869;49.264;8.596;2022-09-09T06:46:18;18.00;99.90
15535;DHT22;7869;49.264;8.596;2022-09-09T06:48:44;18.10;99.90
15535;DHT22;7869;49.264;8.596;2022-09-09T06:51:16;18.10;99.90
15535;DHT22;7869;49.264;8.596;2022-09-09T06:53:43;18.20;99.90
15535;DHT22;7869;49.264;8.596;2022-09-09T06:58:35;18.20;99.90
15535;DHT22;7869;49.264;8.596;2022-09-09T07:01:05;18.10;99.90
15535;DHT22;7869;49.264;8.596;2022-09-09T07:03:32;18.10;99.90
15535;DHT22;7869;49.264;8.596;2022-09-09T07:05:58;18.10;99.90
15535;DHT22;7869;49.264;8.596;2022-09-09T07:08:24;18.00;99.90
15535;DHT22;7869;49.264;8.596;2022-09-09T07:10:50;18.00;99.90
15535;DHT22;7869;49.264;8.596;2022-09-09T07:13:25;18.10;99.90
15535;DHT22;7869;49.264;8.596;2022-09-09T07:15:51;18.10;99.90
15535;DHT22;7869;49.264;8.596;2022-09-09T07:18:17;18.20;99.90
15535;DHT22;7869;49.264;8.596;2022-09-09T07:20:43;18.20;99.90
15535;DHT22;7869;49.264;8.596;2022-09-09T07:23:17;18.40;99.90
15535;DHT22;7869;49.264;8.596;2022-09-09T07:25:46;18.50;99.90
15535;DHT22;7869;49.264;8.596;2022-09-09T07:28:13;18.60;99.90
15535;DHT22;7869;49.264;8.596;2022-09-09T07:30:38;18.60;99.90
15535;DHT22;7869;49.264;8.596;2022-09-09T07:33:05;18.70;99.90
15535;DHT22;7869;49.264;8.596;2022-09-09T07:35:31;18.70;99.90
15535;DHT22;7869;49.264;8.596;2022-09-09T07:37:56;18.80;99.90
15535;DHT22;7869;49.264;8.596;2022-09-09T07:40:23;18.80;99.90
15535;DHT22;7869;49.264;8.596;2022-09-09T07:42:49;18.80;99.90
15535;DHT22;7869;49.264;8.596;2022-09-09T07:45:15;18.80;99.90
15535;DHT22;7869;49.264;8.596;2022-09-09T07:47:40;18.80;99.90
15535;DHT22;7869;49.264;8.596;2022-09-09T07:50:10;18.70;99.90
15535;DHT22;7869;49.264;8.596;2022-09-09T07:52:36;18.60;99.90
15535;DHT22;7869;49.264;8.596;2022-09-09T07:55:02;18.70;99.90
15535;DHT22;7869;49.264;8.596;2022-09-09T07:57:28;19.00;99.90
15535;DHT22;7869;49.264;8.596;2022-09-09T07:59:56;19.20;99.90
15535;DHT22;7869;49.264;8.596;2022-09-09T08:02:23;19.50;99.90
15535;DHT22;7869;49.264;8.596;2022-09-09T08:04:49;19.70;99.90
15535;DHT22;7869;49.264;8.596;2022-09-09T08:07:15;19.90;99.90
15535;DHT22;7869;49.264;8.596;2022-09-09T08:09:41;20.20;99.90
15535;DHT22;7869;49.264;8.596;2022-09-09T08:12:07;20.50;99.90
15535;DHT22;7869;49.264;8.596;2022-09-09T08:14:33;20.60;99.90
15535;DHT22;7869;49.264;8.596;2022-09-09T08:16:58;20.50;99.90
15535;DHT22;7869;49.264;8.596;2022-09-09T08:19:25;20.50;99.90
15535;DHT22;7869;49.264;8.596;2022-09-09T08:21:50;20.60;99.90
15535;DHT22;7869;49.264;8.596;2022-09-09T08:24:16;20.80;99.90
15535;DHT22;7869;49.264;8.596;2022-09-09T08:26:45;20.80;99.90
15535;DHT22;7869;49.264;8.596;2022-09-09T08:29:12;20.50;99.90
15535;DHT22;7869;49.264;8.596;2022-09-09T08:31:50;20.00;99.90
15535;DHT22;7869;49.264;8.596;2022-09-09T08:34:17;19.40;99.90
15535;DHT22;7869;49.264;8.596;2022-09-09T08:36:46;18.60;99.90
15535;DHT22;7869;49.264;8.596;2022-09-09T08:39:13;18.10;99.90
15535;DHT22;7869;49.264;8.596;2022-09-09T08:47:08;18.00;99.90
15535;DHT22;7869;49.264;8.596;2022-09-09T08:50:05;18.00;99.90
15535;DHT22;7869;49.264;8.596;2022-09-09T08:52:51;18.10;99.90
15535;DHT22;7869;49.264;8.596;2022-09-09T08:55:24;18.30;99.90
15535;DHT22;7869;49.264;8.596;2022-09-09T08:57:53;18.40;99.90
15535;DHT22;7869;49.264;8.596;2022-09-09T09:00:20;18.60;99.90
15535;DHT22;7869;49.264;8.596;2022-09-09T09:03:06;18.80;99.90
15535;DHT22;7869;49.264;8.596;2022-09-09T09:05:39;18.80;99.90
15535;DHT22;7869;49.264;8.596;2022-09-09T09:08:22;18.90;99.90
15535;DHT22;7869;49.264;8.596;2022-09-09T09:10:54;19.00;99.90
15535;DHT22;7869;49.264;8.596;2022-09-09T09:13:34;19.00;99.90
15535;DHT22;7869;49.264;8.596;2022-09-09T09:16:11;19.10;99.90
15535;DHT22;7869;49.264;8.596;2022-09-09T09:18:39;19.30;99.90
15535;DHT22;7869;49.264;8.596;2022-09-09T09:21:19;19.40;99.90
15535;DHT22;7869;49.264;8.596;2022-09-09T09:24:12;19.50;99.90
15535;DHT22;7869;49.264;8.596;2022-09-09T09:26:43;19.50;99.90
15535;DHT22;7869;49.264;8.596;2022-09-09T09:29:15;19.50;99.90
15535;DHT22;7869;49.264;8.596;2022-09-09T09:31:55;19.60;99.90
15535;DHT22;7869;49.264;8.596;2022-09-09T09:34:22;19.60;99.90
15535;DHT22;7869;49.264;8.596;2022-09-09T09:36:59;19.60;99.90
15535;DHT22;7869;49.264;8.596;2022-09-09T09:39:31;19.70;99.90
15535;DHT22;7869;49.264;8.596;2022-09-09T09:42:10;19.70;99.90
15535;DHT22;7869;49.264;8.596;2022-09-09T09:44:39;19.90;99.90
15535;DHT22;7869;49.264;8.596;2022-09-09T09:47:12;20.40;99.90
15535;DHT22;7869;49.264;8.596;2022-09-09T09:49:39;20.70;99.90
15535;DHT22;7869;49.264;8.596;2022-09-09T09:52:06;20.90;99.90
15535;DHT22;7869;49.264;8.596;2022-09-09T09:54:38;20.90;99.90
15535;DHT22;7869;49.264;8.596;2022-09-09T09:57:08;20.90;99.90
15535;DHT22;7869;49.264;8.596;2022-09-09T09:59:34;21.00;99.90
15535;DHT22;7869;49.264;8.596;2022-09-09T10:04:38;20.70;99.90
15535;DHT22;7869;49.264;8.596;2022-09-09T10:07:20;20.50;99.90
15535;DHT22;7869;49.264;8.596;2022-09-09T10:09:46;20.40;99.90
15535;DHT22;7869;49.264;8.596;2022-09-09T10:15:01;20.00;99.90
15535;DHT22;7869;49.264;8.596;2022-09-09T10:20:45;19.70;99.90
15535;DHT22;7869;49.264;8.596;2022-09-09T10:35:09;20.30;99.90
15535;DHT22;7869;49.264;8.596;2022-09-09T10:37:54;20.30;99.90
15535;DHT22;7869;49.264;8.596;2022-09-09T10:45:59;20.40;99.90
15535;DHT22;7869;49.264;8.596;2022-09-09T10:48:36;20.60;99.90
15535;DHT22;7869;49.264;8.596;2022-09-09T10:53:37;20.80;99.90
15535;DHT22;7869;49.264;8.596;2022-09-09T10:56:11;20.80;99.90
15535;DHT22;7869;49.264;8.596;2022-09-09T10:58:41;20.90;99.90
15535;DHT22;7869;49.264;8.596;2022-09-09T11:01:10;21.10;99.90
15535;DHT22;7869;49.264;8.596;2022-09-09T11:03:37;20.90;99.90
15535;DHT22;7869;49.264;8.596;2022-09-09T11:06:06;20.80;99.90
15535;DHT22;7869;49.264;8.596;2022-09-09T11:08:36;20.70;99.90
15535;DHT22;7869;49.264;8.596;2022-09-09T11:11:04;20.80;99.90
15535;DHT22;7869;49.264;8.596;2022-09-09T11:13:43;20.80;99.90
15535;DHT22;7869;49.264;8.596;2022-09-09T11:19:00;21.00;99.90
15535;DHT22;7869;49.264;8.596;2022-09-09T11:21:35;21.10;99.90
15535;DHT22;7869;49.264;8.596;2022-09-09T11:24:06;21.20;99.90
15535;DHT22;7869;49.264;8.596;2022-09-09T11:26:37;21.20;99.90
15535;DHT22;7869;49.264;8.596;2022-09-09T11:29:17;21.30;99.90
15535;DHT22;7869;49.264;8.596;2022-09-09T11:32:00;21.50;99.90
15535;DHT22;7869;49.264;8.596;2022-09-09T11:40:07;21.90;99.90
15535;DHT22;7869;49.264;8.596;2022-09-09T11:42:24;22.10;99.90
15535;DHT22;7869;49.264;8.596;2022-09-09T11:44:49;22.10;99.90
15535;DHT22;7869;49.264;8.596;2022-09-09T11:47:37;22.30;99.90
15535;DHT22;7869;49.264;8.596;2022-09-09T11:52:43;22.50;99.90
15535;DHT22;7869;49.264;8.596;2022-09-09T11:55:27;22.60;99.90
15535;DHT22;7869;49.264;8.596;2022-09-09T11:58:01;22.80;99.90
15535;DHT22;7869;49.264;8.596;2022-09-09T12:02:58;23.00;99.90
15535;DHT22;7869;49.264;8.596;2022-09-09T12:05:24;23.30;99.90
15535;DHT22;7869;49.264;8.596;2022-09-09T12:08:01;23.50;99.90
15535;DHT22;7869;49.264;8.596;2022-09-09T12:10:41;23.50;99.90
15535;DHT22;7869;49.264;8.596;2022-09-09T12:15:50;23.10;99.90
15535;DHT22;7869;49.264;8.596;2022-09-09T12:18:49;23.20;99.90
15535;DHT22;7869;49.264;8.596;2022-09-09T12:23:58;22.70;99.90
15535;DHT22;7869;49.264;8.596;2022-09-09T12:33:43;21.50;99.90
15535;DHT22;7869;49.264;8.596;2022-09-09T12:36:17;21.40;99.90
15535;DHT22;7869;49.264;8.596;2022-09-09T12:38:44;21.40;99.90
15535;DHT22;7869;49.264;8.596;2022-09-09T12:41:20;21.30;99.90
15535;DHT22;7869;49.264;8.596;2022-09-09T12:43:46;21.30;99.90
15535;DHT22;7869;49.264;8.596;2022-09-09T12:46:17;21.20;99.90
15535;DHT22;7869;49.264;8.596;2022-09-09T12:48:46;21.00;99.90
15535;DHT22;7869;49.264;8.596;2022-09-09T12:51:31;20.90;99.90
15535;DHT22;7869;49.264;8.596;2022-09-09T12:53:58;20.80;99.90
15535;DHT22;7869;49.264;8.596;2022-09-09T12:56:25;20.80;99.90
15535;DHT22;7869;49.264;8.596;2022-09-09T12:58:52;20.80;99.90
15535;DHT22;7869;49.264;8.596;2022-09-09T13:01:21;20.80;99.90
15535;DHT22;7869;49.264;8.596;2022-09-09T13:03:46;20.60;99.90
15535;DHT22;7869;49.264;8.596;2022-09-09T13:06:13;20.40;99.90
15535;DHT22;7869;49.264;8.596;2022-09-09T13:08:42;20.40;99.90
15535;DHT22;7869;49.264;8.596;2022-09-09T13:11:13;20.30;99.90
15535;DHT22;7869;49.264;8.596;2022-09-09T13:13:40;20.20;99.90
15535;DHT22;7869;49.264;8.596;2022-09-09T13:16:06;20.10;99.90
15535;DHT22;7869;49.264;8.596;2022-09-09T13:18:37;20.00;99.90
15535;DHT22;7869;49.264;8.596;2022-09-09T13:21:04;19.90;99.90
15535;DHT22;7869;49.264;8.596;2022-09-09T13:23:31;19.70;99.90
15535;DHT22;7869;49.264;8.596;2022-09-09T13:26:01;19.30;99.90
15535;DHT22;7869;49.264;8.596;2022-09-09T13:28:29;18.70;99.90
15535;DHT22;7869;49.264;8.596;2022-09-09T13:33:44;17.80;99.90
15535;DHT22;7869;49.264;8.596;2022-09-09T13:36:10;17.60;99.90
15535;DHT22;7869;49.264;8.596;2022-09-09T13:38:37;17.50;99.90
15535;DHT22;7869;49.264;8.596;2022-09-09T13:41:04;17.50;99.90
15535;DHT22;7869;49.264;8.596;2022-09-09T13:43:31;17.70;99.90
15535;DHT22;7869;49.264;8.596;2022-09-09T13:46:00;17.90;99.90
15535;DHT22;7869;49.264;8.596;2022-09-09T13:48:26;18.30;99.90
15535;DHT22;7869;49.264;8.596;2022-09-09T13:51:03;18.70;99.90
15535;DHT22;7869;49.264;8.596;2022-09-09T13:53:30;19.20;99.90
15535;DHT22;7869;49.264;8.596;2022-09-09T13:55:56;19.70;99.90
15535;DHT22;7869;49.264;8.596;2022-09-09T13:58:22;19.90;99.90
15535;DHT22;7869;49.264;8.596;2022-09-09T14:00:48;20.20;99.90
15535;DHT22;7869;49.264;8.596;2022-09-09T14:03:15;20.50;99.90
15535;DHT22;7869;49.264;8.596;2022-09-09T14:05:40;20.90;99.90
15535;DHT22;7869;49.264;8.596;2022-09-09T14:08:06;21.20;99.90
15535;DHT22;7869;49.264;8.596;2022-09-09T14:10:32;21.40;99.90
15535;DHT22;7869;49.264;8.596;2022-09-09T14:13:01;21.60;99.90
15535;DHT22;7869;49.264;8.596;2022-09-09T14:15:26;21.60;99.90
15535;DHT22;7869;49.264;8.596;2022-09-09T14:17:52;21.60;99.90
15535;DHT22;7869;49.264;8.596;2022-09-09T14:20:17;21.60;99.90
15535;DHT22;7869;49.264;8.596;2022-09-09T14:22:44;21.60;99.90
15535;DHT22;7869;49.264;8.596;2022-09-09T14:25:09;21.60;99.90
15535;DHT22;7869;49.264;8.596;2022-09-09T14:27:36;21.80;99.90
15535;DHT22;7869;49.264;8.596;2022-09-09T14:30:04;22.10;99.90
15535;DHT22;7869;49.264;8.596;2022-09-09T14:32:29;22.40;99.90
15535;DHT22;7869;49.264;8.596;2022-09-09T14:34:55;22.70;99.90
15535;DHT22;7869;49.264;8.596;2022-09-09T14:37:20;22.90;99.90
15535;DHT22;7869;49.264;8.596;2022-09-09T14:39:46;23.10;99.90
15535;DHT22;7869;49.264;8.596;2022-09-09T14:42:13;23.40;99.90
15535;DHT22;7869;49.264;8.596;2022-09-09T14:44:38;23.60;99.90
15535;DHT22;7869;49.264;8.596;2022-09-09T14:47:07;23.60;99.90
15535;DHT22;7869;49.264;8.596;2022-09-09T14:49:33;23.60;99.90
15535;DHT22;7869;49.264;8.596;2022-09-09T14:51:59;23.80;99.90
15535;DHT22;7869;49.264;8.596;2022-09-09T14:54:24;23.50;99.90
15535;DHT22;7869;49.264;8.596;2022-09-09T14:56:50;23.00;99.90
15535;DHT22;7869;49.264;8.596;2022-09-09T14:59:15;22.70;99.90
15535;DHT22;7869;49.264;8.596;2022-09-09T15:01:41;22.30;99.90
15535;DHT22;7869;49.264;8.596;2022-09-09T15:04:06;21.80;99.90
15535;DHT22;7869;49.264;8.596;2022-09-09T15:06:33;21.50;99.90
15535;DHT22;7869;49.264;8.596;2022-09-09T15:08:59;21.30;99.90
15535;DHT22;7869;49.264;8.596;2022-09-09T15:11:26;21.10;99.90
15535;DHT22;7869;49.264;8.596;2022-09-09T15:13:53;21.00;99.90
15535;DHT22;7869;49.264;8.596;2022-09-09T15:16:19;21.00;99.90
15535;DHT22;7869;49.264;8.596;2022-09-09T15:18:45;20.90;99.90
15535;DHT22;7869;49.264;8.596;2022-09-09T15:21:15;20.80;99.90
15535;DHT22;7869;49.264;8.596;2022-09-09T15:23:41;20.90;99.90
15535;DHT22;7869;49.264;8.596;2022-09-09T15:26:07;20.90;99.90
15535;DHT22;7869;49.264;8.596;2022-09-09T15:28:33;20.90;99.90
15535;DHT22;7869;49.264;8.596;2022-09-09T15:31:16;20.80;99.90
15535;DHT22;7869;49.264;8.596;2022-09-09T15:33:48;20.80;99.90
15535;DHT22;7869;49.264;8.596;2022-09-09T15:38:39;21.20;99.90
15535;DHT22;7869;49.264;8.596;2022-09-09T15:41:05;21.80;99.90
15535;DHT22;7869;49.264;8.596;2022-09-09T15:43:31;23.00;99.90
15535;DHT22;7869;49.264;8.596;2022-09-09T15:45:58;23.80;99.90
15535;DHT22;7869;49.264;8.596;2022-09-09T15:48:33;24.50;99.90
15535;DHT22;7869;49.264;8.596;2022-09-09T15:51:02;25.00;99.90
15535;DHT22;7869;49.264;8.596;2022-09-09T15:53:28;25.10;99.90
15535;DHT22;7869;49.264;8.596;2022-09-09T15:55:55;25.30;99.90
15535;DHT22;7869;49.264;8.596;2022-09-09T15:58:21;25.70;99.90
15535;DHT22;7869;49.264;8.596;2022-09-09T16:00:46;26.10;99.90
15535;DHT22;7869;49.264;8.596;2022-09-09T16:03:11;26.00;99.90
15535;DHT22;7869;49.264;8.596;2022-09-09T16:05:38;25.80;99.90
15535;DHT22;7869;49.264;8.596;2022-09-09T16:08:03;25.70;99.90
15535;DHT22;7869;49.264;8.596;2022-09-09T16:10:29;26.20;99.90
15535;DHT22;7869;49.264;8.596;2022-09-09T16:12:56;25.80;99.90
15535;DHT22;7869;49.264;8.596;2022-09-09T16:15:21;24.70;99.90
15535;DHT22;7869;49.264;8.596;2022-09-09T16:17:48;24.00;99.90
15535;DHT22;7869;49.264;8.596;2022-09-09T16:20:14;23.60;99.90
15535;DHT22;7869;49.264;8.596;2022-09-09T16:22:39;23.10;99.90
15535;DHT22;7869;49.264;8.596;2022-09-09T16:25:05;22.60;99.90
15535;DHT22;7869;49.264;8.596;2022-09-09T16:27:31;22.10;99.90
15535;DHT22;7869;49.264;8.596;2022-09-09T16:29:56;21.70;99.90
15535;DHT22;7869;49.264;8.596;2022-09-09T16:32:22;21.40;99.90
15535;DHT22;7869;49.264;8.596;2022-09-09T16:34:47;21.20;99.90
15535;DHT22;7869;49.264;8.596;2022-09-09T16:37:13;21.00;99.90
15535;DHT22;7869;49.264;8.596;2022-09-09T16:39:38;20.80;99.90
15535;DHT22;7869;49.264;8.596;2022-09-09T16:42:04;20.60;99.90
15535;DHT22;7869;49.264;8.596;2022-09-09T16:44:30;20.50;99.90
15535;DHT22;7869;49.264;8.596;2022-09-09T16:46:55;20.20;99.90
15535;DHT22;7869;49.264;8.596;2022-09-09T16:49:21;20.00;99.90
15535;DHT22;7869;49.264;8.596;2022-09-09T16:51:47;19.80;99.90
15535;DHT22;7869;49.264;8.596;2022-09-09T16:54:14;19.60;99.90
15535;DHT22;7869;49.264;8.596;2022-09-09T16:56:41;19.40;99.90
15535;DHT22;7869;49.264;8.596;2022-09-09T16:59:08;19.30;99.90
15535;DHT22;7869;49.264;8.596;2022-09-09T17:01:35;19.20;99.90
15535;DHT22;7869;49.264;8.596;2022-09-09T17:04:03;19.10;99.90
15535;DHT22;7869;49.264;8.596;2022-09-09T17:06:30;19.00;99.90
15535;DHT22;7869;49.264;8.596;2022-09-09T17:08:57;18.90;99.90
15535;DHT22;7869;49.264;8.596;2022-09-09T17:11:23;18.60;99.90
15535;DHT22;7869;49.264;8.596;2022-09-09T17:13:49;18.40;99.90
15535;DHT22;7869;49.264;8.596;2022-09-09T17:16:15;18.20;99.90
15535;DHT22;7869;49.264;8.596;2022-09-09T17:18:41;18.00;99.90
15535;DHT22;7869;49.264;8.596;2022-09-09T17:21:12;17.80;99.90
15535;DHT22;7869;49.264;8.596;2022-09-09T17:23:39;17.60;99.90
15535;DHT22;7869;49.264;8.596;2022-09-09T17:26:05;17.50;99.90
15535;DHT22;7869;49.264;8.596;2022-09-09T17:28:33;17.40;99.90
15535;DHT22;7869;49.264;8.596;2022-09-09T17:30:59;17.30;99.90
15535;DHT22;7869;49.264;8.596;2022-09-09T17:33:28;17.20;99.90
15535;DHT22;7869;49.264;8.596;2022-09-09T17:35:59;17.10;99.90
15535;DHT22;7869;49.264;8.596;2022-09-09T17:38:26;17.00;99.90
15535;DHT22;7869;49.264;8.596;2022-09-09T17:43:27;16.80;99.90
15535;DHT22;7869;49.264;8.596;2022-09-09T17:45:53;16.80;99.90